sensor_id;sensor_type;location;lat;lon;timestamp;temperature;humidity
69944;DHT22;57257;48.408;-4.498;2023-01-09T00:00:51;10.56;66.37
69944;DHT22;57257;48.408;-4.498;2023-01-09T00:03:17;10.63;66.29
69944;DHT22;57257;48.408;-4.498;2023-01-09T00:05:42;10.63;65.62
69944;DHT22;57257;48.408;-4.498;2023-01-09T00:08:08;10.63;64.91
69944;DHT22;57257;48.408;-4.498;2023-01-09T00:10:33;10.64;64.88
69944;DHT22;57257;48.408;-4.498;2023-01-09T00:12:59;10.64;64.55
69944;DHT22;57257;48.408;-4.498;2023-01-09T00:15:24;10.65;63.53
69944;DHT22;57257;48.408;-4.498;2023-01-09T00:17:50;10.64;63.26
69944;DHT22;57257;48.408;-4.498;2023-01-09T00:20:16;10.67;63.21
69944;DHT22;57257;48.408;-4.498;2023-01-09T00:22:41;10.67;62.80
69944;DHT22;57257;48.408;-4.498;2023-01-09T00:25:08;10.63;62.71
69944;DHT22;57257;48.408;-4.498;2023-01-09T00:27:33;10.65;62.04
69944;DHT22;57257;48.408;-4.498;2023-01-09T00:30:00;10.65;62.04
69944;DHT22;57257;48.408;-4.498;2023-01-09T00:32:26;10.67;61.53
69944;DHT22;57257;48.408;-4.498;2023-01-09T00:34:52;10.67;61.72
69944;DHT22;57257;48.408;-4.498;2023-01-09T00:37:18;10.68;62.57
69944;DHT22;57257;48.408;-4.498;2023-01-09T00:39:44;10.64;63.05
69944;DHT22;57257;48.408;-4.498;2023-01-09T00:42:12;10.56;62.90
69944;DHT22;57257;48.408;-4.498;2023-01-09T00:44:42;10.49;62.68
69944;DHT22;57257;48.408;-4.498;2023-01-09T00:47:37;10.40;62.70
69944;DHT22;57257;48.408;-4.498;2023-01-09T00:50:08;10.40;63.24
69944;DHT22;57257;48.408;-4.498;2023-01-09T00:52:38;10.34;63.48
69944;DHT22;57257;48.408;-4.498;2023-01-09T00:55:05;10.32;64.04
69944;DHT22;57257;48.408;-4.498;2023-01-09T00:57:31;10.28;64.47
69944;DHT22;57257;48.408;-4.498;2023-01-09T00:59:57;10.26;64.86
69944;DHT22;57257;48.408;-4.498;2023-01-09T01:02:23;10.23;65.10
69944;DHT22;57257;48.408;-4.498;2023-01-09T01:04:48;10.24;65.37
69944;DHT22;57257;48.408;-4.498;2023-01-09T01:07:32;10.26;65.48
69944;DHT22;57257;48.408;-4.498;2023-01-09T01:10:06;10.24;65.57
69944;DHT22;57257;48.408;-4.498;2023-01-09T01:12:32;10.32;65.55
69944;DHT22;57257;48.408;-4.498;2023-01-09T01:14:57;10.34;65.75
69944;DHT22;57257;48.408;-4.498;2023-01-09T01:17:23;10.33;65.78
69944;DHT22;57257;48.408;-4.498;2023-01-09T01:19:48;10.33;65.80
69944;DHT22;57257;48.408;-4.498;2023-01-09T01:22:14;10.28;65.71
69944;DHT22;57257;48.408;-4.498;2023-01-09T01:24:39;10.20;65.39
69944;DHT22;57257;48.408;-4.498;2023-01-09T01:27:05;10.16;65.66
69944;DHT22;57257;48.408;-4.498;2023-01-09T01:29:30;10.10;65.89
69944;DHT22;57257;48.408;-4.498;2023-01-09T01:31:55;10.08;65.93
69944;DHT22;57257;48.408;-4.498;2023-01-09T01:34:21;10.05;66.13
69944;DHT22;57257;48.408;-4.498;2023-01-09T01:36:46;10.09;66.08
69944;DHT22;57257;48.408;-4.498;2023-01-09T01:39:12;10.13;66.21
69944;DHT22;57257;48.408;-4.498;2023-01-09T01:41:37;10.13;66.19
69944;DHT22;57257;48.408;-4.498;2023-01-09T01:44:06;10.16;66.20
69944;DHT22;57257;48.408;-4.498;2023-01-09T01:46:32;10.16;66.12
69944;DHT22;57257;48.408;-4.498;2023-01-09T01:49:12;10.24;65.60
69944;DHT22;57257;48.408;-4.498;2023-01-09T01:51:43;10.24;64.36
69944;DHT22;57257;48.408;-4.498;2023-01-09T01:54:13;10.24;63.75
69944;DHT22;57257;48.408;-4.498;2023-01-09T01:56:46;10.33;63.06
69944;DHT22;57257;48.408;-4.498;2023-01-09T01:59:20;10.36;63.53
69944;DHT22;57257;48.408;-4.498;2023-01-09T02:01:55;10.36;63.87
69944;DHT22;57257;48.408;-4.498;2023-01-09T02:04:22;10.36;64.07
69944;DHT22;57257;48.408;-4.498;2023-01-09T02:06:50;10.36;64.20
69944;DHT22;57257;48.408;-4.498;2023-01-09T02:09:16;10.33;64.05
69944;DHT22;57257;48.408;-4.498;2023-01-09T02:11:45;10.36;64.09
69944;DHT22;57257;48.408;-4.498;2023-01-09T02:14:11;10.36;64.19
69944;DHT22;57257;48.408;-4.498;2023-01-09T02:27:06;10.26;63.07
69944;DHT22;57257;48.408;-4.498;2023-01-09T02:43:19;9.92;63.27
69944;DHT22;57257;48.408;-4.498;2023-01-09T02:45:44;9.88;64.01
69944;DHT22;57257;48.408;-4.498;2023-01-09T02:48:10;9.85;64.73
69944;DHT22;57257;48.408;-4.498;2023-01-09T02:56:27;9.79;65.60
69944;DHT22;57257;48.408;-4.498;2023-01-09T02:59:10;9.76;65.85
69944;DHT22;57257;48.408;-4.498;2023-01-09T03:07:22;9.71;66.37
69944;DHT22;57257;48.408;-4.498;2023-01-09T03:09:47;9.72;66.08
69944;DHT22;57257;48.408;-4.498;2023-01-09T03:12:20;9.75;65.44
69944;DHT22;57257;48.408;-4.498;2023-01-09T03:14:49;9.78;65.16
69944;DHT22;57257;48.408;-4.498;2023-01-09T03:17:22;9.79;64.65
69944;DHT22;57257;48.408;-4.498;2023-01-09T03:19:52;9.79;64.62
69944;DHT22;57257;48.408;-4.498;2023-01-09T03:22:17;9.81;64.38
69944;DHT22;57257;48.408;-4.498;2023-01-09T03:24:43;9.81;64.06
69944;DHT22;57257;48.408;-4.498;2023-01-09T03:27:08;9.82;63.95
69944;DHT22;57257;48.408;-4.498;2023-01-09T03:29:34;9.86;63.76
69944;DHT22;57257;48.408;-4.498;2023-01-09T03:32:00;9.86;63.51
69944;DHT22;57257;48.408;-4.498;2023-01-09T03:34:25;9.92;63.55
69944;DHT22;57257;48.408;-4.498;2023-01-09T03:36:51;9.93;63.71
69944;DHT22;57257;48.408;-4.498;2023-01-09T03:39:16;10.00;63.71
69944;DHT22;57257;48.408;-4.498;2023-01-09T03:41:41;9.96;63.63
69944;DHT22;57257;48.408;-4.498;2023-01-09T03:44:07;9.99;63.68
69944;DHT22;57257;48.408;-4.498;2023-01-09T03:46:32;9.92;62.97
69944;DHT22;57257;48.408;-4.498;2023-01-09T03:48:57;9.90;61.36
69944;DHT22;57257;48.408;-4.498;2023-01-09T03:51:23;9.85;60.45
69944;DHT22;57257;48.408;-4.498;2023-01-09T03:53:48;9.83;60.49
69944;DHT22;57257;48.408;-4.498;2023-01-09T03:56:14;9.76;59.62
69944;DHT22;57257;48.408;-4.498;2023-01-09T03:58:39;9.72;59.55
69944;DHT22;57257;48.408;-4.498;2023-01-09T04:01:05;9.72;59.18
69944;DHT22;57257;48.408;-4.498;2023-01-09T04:03:37;9.71;59.43
69944;DHT22;57257;48.408;-4.498;2023-01-09T04:06:03;9.65;58.70
69944;DHT22;57257;48.408;-4.498;2023-01-09T04:08:28;9.66;59.22
69944;DHT22;57257;48.408;-4.498;2023-01-09T04:10:54;9.65;59.17
69944;DHT22;57257;48.408;-4.498;2023-01-09T04:13:20;9.65;59.67
69944;DHT22;57257;48.408;-4.498;2023-01-09T04:15:45;9.66;59.72
69944;DHT22;57257;48.408;-4.498;2023-01-09T04:18:11;9.65;60.18
69944;DHT22;57257;48.408;-4.498;2023-01-09T04:20:36;9.65;60.50
69944;DHT22;57257;48.408;-4.498;2023-01-09T04:23:02;9.69;60.82
69944;DHT22;57257;48.408;-4.498;2023-01-09T04:25:27;9.71;61.01
69944;DHT22;57257;48.408;-4.498;2023-01-09T04:27:53;9.71;61.58
69944;DHT22;57257;48.408;-4.498;2023-01-09T04:30:18;9.71;61.95
69944;DHT22;57257;48.408;-4.498;2023-01-09T04:32:44;9.68;62.23
69944;DHT22;57257;48.408;-4.498;2023-01-09T04:35:10;9.68;62.53
69944;DHT22;57257;48.408;-4.498;2023-01-09T04:37:35;9.68;62.91
69944;DHT22;57257;48.408;-4.498;2023-01-09T04:40:02;9.71;63.30
69944;DHT22;57257;48.408;-4.498;2023-01-09T04:42:38;9.69;63.61
69944;DHT22;57257;48.408;-4.498;2023-01-09T04:45:04;9.74;63.94
69944;DHT22;57257;48.408;-4.498;2023-01-09T04:47:31;9.78;64.16
69944;DHT22;57257;48.408;-4.498;2023-01-09T04:49:57;9.79;64.32
69944;DHT22;57257;48.408;-4.498;2023-01-09T04:52:22;9.79;64.61
69944;DHT22;57257;48.408;-4.498;2023-01-09T04:54:48;9.82;64.84
69944;DHT22;57257;48.408;-4.498;2023-01-09T04:57:13;9.82;64.56
69944;DHT22;57257;48.408;-4.498;2023-01-09T04:59:39;9.83;63.88
69944;DHT22;57257;48.408;-4.498;2023-01-09T05:02:04;9.88;62.11
69944;DHT22;57257;48.408;-4.498;2023-01-09T05:04:30;9.95;61.62
69944;DHT22;57257;48.408;-4.498;2023-01-09T05:06:55;10.00;61.30
69944;DHT22;57257;48.408;-4.498;2023-01-09T05:09:21;10.05;60.99
69944;DHT22;57257;48.408;-4.498;2023-01-09T05:11:47;10.09;61.56
69944;DHT22;57257;48.408;-4.498;2023-01-09T05:14:12;10.05;63.03
69944;DHT22;57257;48.408;-4.498;2023-01-09T05:16:38;9.95;63.60
69944;DHT22;57257;48.408;-4.498;2023-01-09T05:19:03;9.85;64.12
69944;DHT22;57257;48.408;-4.498;2023-01-09T05:21:29;9.78;64.92
69944;DHT22;57257;48.408;-4.498;2023-01-09T05:23:54;9.74;65.06
69944;DHT22;57257;48.408;-4.498;2023-01-09T05:26:21;9.66;64.97
69944;DHT22;57257;48.408;-4.498;2023-01-09T05:28:50;9.68;64.38
69944;DHT22;57257;48.408;-4.498;2023-01-09T05:31:17;9.66;62.92
69944;DHT22;57257;48.408;-4.498;2023-01-09T05:33:42;9.63;62.02
69944;DHT22;57257;48.408;-4.498;2023-01-09T05:36:07;9.62;61.66
69944;DHT22;57257;48.408;-4.498;2023-01-09T05:38:33;9.61;61.42
69944;DHT22;57257;48.408;-4.498;2023-01-09T05:40:58;9.58;61.36
69944;DHT22;57257;48.408;-4.498;2023-01-09T05:43:24;9.58;61.62
69944;DHT22;57257;48.408;-4.498;2023-01-09T05:45:49;9.58;62.06
69944;DHT22;57257;48.408;-4.498;2023-01-09T05:48:15;9.61;62.48
69944;DHT22;57257;48.408;-4.498;2023-01-09T05:50:40;9.62;62.98
69944;DHT22;57257;48.408;-4.498;2023-01-09T05:53:06;9.66;63.65
69944;DHT22;57257;48.408;-4.498;2023-01-09T05:55:32;9.68;64.16
69944;DHT22;57257;48.408;-4.498;2023-01-09T05:57:57;9.66;64.24
69944;DHT22;57257;48.408;-4.498;2023-01-09T06:00:23;9.66;63.30
69944;DHT22;57257;48.408;-4.498;2023-01-09T06:02:48;9.69;63.12
69944;DHT22;57257;48.408;-4.498;2023-01-09T06:05:13;9.69;63.17
69944;DHT22;57257;48.408;-4.498;2023-01-09T06:07:40;9.71;62.97
69944;DHT22;57257;48.408;-4.498;2023-01-09T06:10:10;9.71;62.99
69944;DHT22;57257;48.408;-4.498;2023-01-09T06:12:36;9.75;63.17
69944;DHT22;57257;48.408;-4.498;2023-01-09T06:15:02;9.74;63.39
69944;DHT22;57257;48.408;-4.498;2023-01-09T06:17:28;9.76;63.87
69944;DHT22;57257;48.408;-4.498;2023-01-09T06:19:53;9.75;63.87
69944;DHT22;57257;48.408;-4.498;2023-01-09T06:22:18;9.74;63.97
69944;DHT22;57257;48.408;-4.498;2023-01-09T06:24:44;9.71;64.17
69944;DHT22;57257;48.408;-4.498;2023-01-09T06:27:09;9.69;64.33
69944;DHT22;57257;48.408;-4.498;2023-01-09T06:29:37;9.66;64.37
69944;DHT22;57257;48.408;-4.498;2023-01-09T06:32:02;9.63;64.32
69944;DHT22;57257;48.408;-4.498;2023-01-09T06:34:28;9.56;63.93
69944;DHT22;57257;48.408;-4.498;2023-01-09T06:36:53;9.54;63.99
69944;DHT22;57257;48.408;-4.498;2023-01-09T06:39:19;9.56;64.04
69944;DHT22;57257;48.408;-4.498;2023-01-09T06:41:44;9.59;64.26
69944;DHT22;57257;48.408;-4.498;2023-01-09T06:44:10;9.63;64.47
69944;DHT22;57257;48.408;-4.498;2023-01-09T06:46:35;9.66;64.73
69944;DHT22;57257;48.408;-4.498;2023-01-09T06:49:00;9.69;65.15
69944;DHT22;57257;48.408;-4.498;2023-01-09T06:51:26;9.71;65.71
69944;DHT22;57257;48.408;-4.498;2023-01-09T06:53:51;9.74;65.86
69944;DHT22;57257;48.408;-4.498;2023-01-09T06:56:17;9.74;66.17
69944;DHT22;57257;48.408;-4.498;2023-01-09T06:58:44;9.75;66.22
69944;DHT22;57257;48.408;-4.498;2023-01-09T07:01:09;9.75;66.09
69944;DHT22;57257;48.408;-4.498;2023-01-09T07:03:35;9.76;65.57
69944;DHT22;57257;48.408;-4.498;2023-01-09T07:06:00;9.81;65.33
69944;DHT22;57257;48.408;-4.498;2023-01-09T07:08:26;9.83;65.25
69944;DHT22;57257;48.408;-4.498;2023-01-09T07:10:51;9.88;65.31
69944;DHT22;57257;48.408;-4.498;2023-01-09T07:13:17;9.92;65.27
69944;DHT22;57257;48.408;-4.498;2023-01-09T07:15:42;9.96;65.18
69944;DHT22;57257;48.408;-4.498;2023-01-09T07:18:08;10.00;65.14
69944;DHT22;57257;48.408;-4.498;2023-01-09T07:20:33;10.05;65.15
69944;DHT22;57257;48.408;-4.498;2023-01-09T07:22:59;10.06;65.01
69944;DHT22;57257;48.408;-4.498;2023-01-09T07:25:24;10.13;65.07
69944;DHT22;57257;48.408;-4.498;2023-01-09T07:27:50;10.14;65.14
69944;DHT22;57257;48.408;-4.498;2023-01-09T07:30:15;10.20;65.20
69944;DHT22;57257;48.408;-4.498;2023-01-09T07:32:41;10.21;65.32
69944;DHT22;57257;48.408;-4.498;2023-01-09T07:35:07;10.24;65.45
69944;DHT22;57257;48.408;-4.498;2023-01-09T07:37:33;10.28;65.49
69944;DHT22;57257;48.408;-4.498;2023-01-09T07:39:59;10.30;65.53
69944;DHT22;57257;48.408;-4.498;2023-01-09T08:18:28;9.78;66.53
69944;DHT22;57257;48.408;-4.498;2023-01-09T08:20:54;9.88;66.47
69944;DHT22;57257;48.408;-4.498;2023-01-09T08:23:19;9.98;66.17
69944;DHT22;57257;48.408;-4.498;2023-01-09T08:25:45;10.03;65.74
69944;DHT22;57257;48.408;-4.498;2023-01-09T08:28:10;10.06;65.74
69944;DHT22;57257;48.408;-4.498;2023-01-09T08:30:37;10.17;66.07
69944;DHT22;57257;48.408;-4.498;2023-01-09T08:33:02;10.23;66.37
69944;DHT22;57257;48.408;-4.498;2023-01-09T08:35:28;10.32;66.44
69944;DHT22;57257;48.408;-4.498;2023-01-09T08:37:53;10.34;66.39
69944;DHT22;57257;48.408;-4.498;2023-01-09T08:40:19;10.34;66.38
69944;DHT22;57257;48.408;-4.498;2023-01-09T08:42:44;10.37;66.40
69944;DHT22;57257;48.408;-4.498;2023-01-09T08:45:29;10.40;66.23
69944;DHT22;57257;48.408;-4.498;2023-01-09T08:48:13;10.44;65.58
69944;DHT22;57257;48.408;-4.498;2023-01-09T08:50:39;10.56;65.33
69944;DHT22;57257;48.408;-4.498;2023-01-09T08:53:04;10.65;64.91
69944;DHT22;57257;48.408;-4.498;2023-01-09T08:55:30;10.75;65.09
69944;DHT22;57257;48.408;-4.498;2023-01-09T08:57:55;10.80;64.44
69944;DHT22;57257;48.408;-4.498;2023-01-09T09:00:22;10.80;63.92
69944;DHT22;57257;48.408;-4.498;2023-01-09T09:02:52;10.77;64.07
69944;DHT22;57257;48.408;-4.498;2023-01-09T09:05:18;10.77;64.49
69944;DHT22;57257;48.408;-4.498;2023-01-09T09:07:50;10.77;64.82
69944;DHT22;57257;48.408;-4.498;2023-01-09T09:10:16;10.75;64.96
69944;DHT22;57257;48.408;-4.498;2023-01-09T09:12:42;10.77;65.04
69944;DHT22;57257;48.408;-4.498;2023-01-09T09:15:09;10.85;65.14
69944;DHT22;57257;48.408;-4.498;2023-01-09T09:17:38;11.00;65.19
69944;DHT22;57257;48.408;-4.498;2023-01-09T09:20:05;11.21;65.28
69944;DHT22;57257;48.408;-4.498;2023-01-09T09:22:31;11.35;65.25
69944;DHT22;57257;48.408;-4.498;2023-01-09T09:24:56;11.49;64.87
69944;DHT22;57257;48.408;-4.498;2023-01-09T09:27:22;11.63;64.79
69944;DHT22;57257;48.408;-4.498;2023-01-09T09:29:47;11.68;64.17
69944;DHT22;57257;48.408;-4.498;2023-01-09T09:32:13;11.62;63.39
69944;DHT22;57257;48.408;-4.498;2023-01-09T09:34:38;11.59;63.38
69944;DHT22;57257;48.408;-4.498;2023-01-09T09:37:04;11.56;63.34
69944;DHT22;57257;48.408;-4.498;2023-01-09T09:39:29;11.58;62.84
69944;DHT22;57257;48.408;-4.498;2023-01-09T09:42:23;11.63;62.26
69944;DHT22;57257;48.408;-4.498;2023-01-09T09:56:19;11.62;63.09
69944;DHT22;57257;48.408;-4.498;2023-01-09T09:58:53;11.55;63.32
69944;DHT22;57257;48.408;-4.498;2023-01-09T10:01:35;11.56;64.95
69944;DHT22;57257;48.408;-4.498;2023-01-09T10:04:04;11.61;64.20
69944;DHT22;57257;48.408;-4.498;2023-01-09T10:06:39;11.72;63.96
69944;DHT22;57257;48.408;-4.498;2023-01-09T10:15:14;12.13;62.83
69944;DHT22;57257;48.408;-4.498;2023-01-09T10:26:07;12.48;62.28
69944;DHT22;57257;48.408;-4.498;2023-01-09T10:28:58;12.67;64.04
69944;DHT22;57257;48.408;-4.498;2023-01-09T10:31:37;12.87;63.58
69944;DHT22;57257;48.408;-4.498;2023-01-09T10:39:36;13.01;59.27
69944;DHT22;57257;48.408;-4.498;2023-01-09T10:47:32;13.05;57.84
69944;DHT22;57257;48.408;-4.498;2023-01-09T10:50:00;13.09;57.63
69944;DHT22;57257;48.408;-4.498;2023-01-09T10:52:34;13.18;57.40
69944;DHT22;57257;48.408;-4.498;2023-01-09T10:57:44;13.22;56.69
69944;DHT22;57257;48.408;-4.498;2023-01-09T11:00:19;13.07;57.36
69944;DHT22;57257;48.408;-4.498;2023-01-09T11:02:45;12.98;59.00
69944;DHT22;57257;48.408;-4.498;2023-01-09T11:05:16;12.85;59.89
69944;DHT22;57257;48.408;-4.498;2023-01-09T11:07:45;12.69;60.56
69944;DHT22;57257;48.408;-4.498;2023-01-09T11:10:13;12.54;61.63
69944;DHT22;57257;48.408;-4.498;2023-01-09T11:12:39;12.57;62.00
69944;DHT22;57257;48.408;-4.498;2023-01-09T11:17:50;12.77;62.25
69944;DHT22;57257;48.408;-4.498;2023-01-09T11:22:49;12.99;62.21
69944;DHT22;57257;48.408;-4.498;2023-01-09T11:25:20;12.98;61.78
69944;DHT22;57257;48.408;-4.498;2023-01-09T11:30:26;12.81;60.63
69944;DHT22;57257;48.408;-4.498;2023-01-09T11:32:53;12.77;59.79
69944;DHT22;57257;48.408;-4.498;2023-01-09T11:35:26;12.68;56.79
69944;DHT22;57257;48.408;-4.498;2023-01-09T11:38:28;12.67;55.19
69944;DHT22;57257;48.408;-4.498;2023-01-09T11:40:59;12.74;54.45
69944;DHT22;57257;48.408;-4.498;2023-01-09T11:45:56;12.78;54.36
69944;DHT22;57257;48.408;-4.498;2023-01-09T11:48:32;12.80;55.21
69944;DHT22;57257;48.408;-4.498;2023-01-09T11:50:59;12.80;55.24
69944;DHT22;57257;48.408;-4.498;2023-01-09T11:53:26;12.78;55.76
69944;DHT22;57257;48.408;-4.498;2023-01-09T11:55:59;12.77;56.51
69944;DHT22;57257;48.408;-4.498;2023-01-09T11:58:33;12.83;56.90
69944;DHT22;57257;48.408;-4.498;2023-01-09T12:04:22;12.97;57.50
69944;DHT22;57257;48.408;-4.498;2023-01-09T12:09:40;12.88;56.78
69944;DHT22;57257;48.408;-4.498;2023-01-09T12:12:36;12.94;56.39
69944;DHT22;57257;48.408;-4.498;2023-01-09T12:15:23;12.92;55.99
69944;DHT22;57257;48.408;-4.498;2023-01-09T12:23:24;12.94;56.86
69944;DHT22;57257;48.408;-4.498;2023-01-09T12:25:57;12.94;56.61
69944;DHT22;57257;48.408;-4.498;2023-01-09T12:36:50;12.81;60.26
69944;DHT22;57257;48.408;-4.498;2023-01-09T12:44:52;12.51;59.67
69944;DHT22;57257;48.408;-4.498;2023-01-09T12:52:31;12.60;59.61
69944;DHT22;57257;48.408;-4.498;2023-01-09T12:55:15;12.65;58.99
69944;DHT22;57257;48.408;-4.498;2023-01-09T12:57:53;12.78;59.52
69944;DHT22;57257;48.408;-4.498;2023-01-09T13:00:27;12.92;59.22
69944;DHT22;57257;48.408;-4.498;2023-01-09T13:03:00;13.05;59.12
69944;DHT22;57257;48.408;-4.498;2023-01-09T13:06:04;13.18;58.45
69944;DHT22;57257;48.408;-4.498;2023-01-09T13:11:08;13.43;58.12
69944;DHT22;57257;48.408;-4.498;2023-01-09T13:13:58;13.53;56.62
69944;DHT22;57257;48.408;-4.498;2023-01-09T13:16:36;13.62;56.59
69944;DHT22;57257;48.408;-4.498;2023-01-09T13:19:31;13.79;56.52
69944;DHT22;57257;48.408;-4.498;2023-01-09T13:21:59;13.74;55.95
69944;DHT22;57257;48.408;-4.498;2023-01-09T13:24:41;13.66;56.04
69944;DHT22;57257;48.408;-4.498;2023-01-09T13:27:16;13.48;56.33
69944;DHT22;57257;48.408;-4.498;2023-01-09T13:29:47;13.35;56.67
69944;DHT22;57257;48.408;-4.498;2023-01-09T13:35:01;13.34;56.26
69944;DHT22;57257;48.408;-4.498;2023-01-09T13:37:32;13.39;55.72
69944;DHT22;57257;48.408;-4.498;2023-01-09T13:40:05;13.36;54.78
69944;DHT22;57257;48.408;-4.498;2023-01-09T13:42:31;13.25;55.14
69944;DHT22;57257;48.408;-4.498;2023-01-09T13:47:43;13.05;55.76
69944;DHT22;57257;48.408;-4.498;2023-01-09T13:52:38;12.78;58.69
69944;DHT22;57257;48.408;-4.498;2023-01-09T13:57:37;12.60;61.30
69944;DHT22;57257;48.408;-4.498;2023-01-09T14:05:12;12.75;63.20
69944;DHT22;57257;48.408;-4.498;2023-01-09T14:07:42;12.91;62.31
69944;DHT22;57257;48.408;-4.498;2023-01-09T14:10:28;13.02;62.20
69944;DHT22;57257;48.408;-4.498;2023-01-09T14:12:55;13.23;61.76
69944;DHT22;57257;48.408;-4.498;2023-01-09T14:15:40;13.43;62.98
69944;DHT22;57257;48.408;-4.498;2023-01-09T14:18:17;13.74;60.82
69944;DHT22;57257;48.408;-4.498;2023-01-09T14:20:51;13.89;60.28
69944;DHT22;57257;48.408;-4.498;2023-01-09T14:23:22;13.79;59.73
69944;DHT22;57257;48.408;-4.498;2023-01-09T14:25:50;13.67;59.38
69944;DHT22;57257;48.408;-4.498;2023-01-09T14:28:23;13.53;59.57
69944;DHT22;57257;48.408;-4.498;2023-01-09T14:41:00;12.98;60.74
69944;DHT22;57257;48.408;-4.498;2023-01-09T14:43:37;12.99;60.89
69944;DHT22;57257;48.408;-4.498;2023-01-09T14:46:13;12.95;60.94
69944;DHT22;57257;48.408;-4.498;2023-01-09T14:48:54;12.84;60.99
69944;DHT22;57257;48.408;-4.498;2023-01-09T14:51:21;12.75;61.38
69944;DHT22;57257;48.408;-4.498;2023-01-09T14:53:50;12.74;61.64
69944;DHT22;57257;48.408;-4.498;2023-01-09T14:56:44;12.71;61.45
69944;DHT22;57257;48.408;-4.498;2023-01-09T14:59:11;12.61;61.10
69944;DHT22;57257;48.408;-4.498;2023-01-09T15:01:39;12.55;61.15
69944;DHT22;57257;48.408;-4.498;2023-01-09T15:04:28;12.53;61.16
69944;DHT22;57257;48.408;-4.498;2023-01-09T15:06:56;12.50;61.05
69944;DHT22;57257;48.408;-4.498;2023-01-09T15:09:26;12.45;60.49
69944;DHT22;57257;48.408;-4.498;2023-01-09T15:11:56;12.44;60.67
69944;DHT22;57257;48.408;-4.498;2023-01-09T15:14:31;12.48;61.36
69944;DHT22;57257;48.408;-4.498;2023-01-09T15:16:59;12.47;60.57
69944;DHT22;57257;48.408;-4.498;2023-01-09T15:19:25;12.43;60.73
69944;DHT22;57257;48.408;-4.498;2023-01-09T15:22:02;12.43;61.37
69944;DHT22;57257;48.408;-4.498;2023-01-09T15:24:30;12.50;61.42
69944;DHT22;57257;48.408;-4.498;2023-01-09T15:27:00;12.50;61.00
69944;DHT22;57257;48.408;-4.498;2023-01-09T15:29:26;12.51;60.99
69944;DHT22;57257;48.408;-4.498;2023-01-09T15:32:02;12.53;60.97
69944;DHT22;57257;48.408;-4.498;2023-01-09T15:34:28;12.48;60.61
69944;DHT22;57257;48.408;-4.498;2023-01-09T15:36:54;12.51;60.92
69944;DHT22;57257;48.408;-4.498;2023-01-09T15:39:40;12.50;59.35
69944;DHT22;57257;48.408;-4.498;2023-01-09T15:42:21;12.47;58.99
69944;DHT22;57257;48.408;-4.498;2023-01-09T15:45:12;12.38;58.48
69944;DHT22;57257;48.408;-4.498;2023-01-09T15:47:39;12.36;58.69
69944;DHT22;57257;48.408;-4.498;2023-01-09T15:50:05;12.32;58.53
69944;DHT22;57257;48.408;-4.498;2023-01-09T15:52:30;12.29;58.49
69944;DHT22;57257;48.408;-4.498;2023-01-09T15:54:56;12.26;58.53
69944;DHT22;57257;48.408;-4.498;2023-01-09T15:59:53;12.23;58.77
69944;DHT22;57257;48.408;-4.498;2023-01-09T16:02:21;12.22;59.01
69944;DHT22;57257;48.408;-4.498;2023-01-09T16:05:14;12.23;59.15
69944;DHT22;57257;48.408;-4.498;2023-01-09T16:07:50;12.23;59.31
69944;DHT22;57257;48.408;-4.498;2023-01-09T16:10:22;12.20;59.57
69944;DHT22;57257;48.408;-4.498;2023-01-09T16:12:48;12.14;59.03
69944;DHT22;57257;48.408;-4.498;2023-01-09T16:15:17;12.13;59.43
69944;DHT22;57257;48.408;-4.498;2023-01-09T16:18:03;12.12;59.78
69944;DHT22;57257;48.408;-4.498;2023-01-09T16:20:29;12.07;59.41
69944;DHT22;57257;48.408;-4.498;2023-01-09T16:22:55;12.06;59.39
69944;DHT22;57257;48.408;-4.498;2023-01-09T16:25:30;12.04;59.60
69944;DHT22;57257;48.408;-4.498;2023-01-09T16:33:25;12.00;60.17
69944;DHT22;57257;48.408;-4.498;2023-01-09T16:35:52;11.99;60.47
69944;DHT22;57257;48.408;-4.498;2023-01-09T16:38:18;12.00;60.69
69944;DHT22;57257;48.408;-4.498;2023-01-09T16:41:03;11.94;61.10
69944;DHT22;57257;48.408;-4.498;2023-01-09T16:43:49;11.94;61.36
69944;DHT22;57257;48.408;-4.498;2023-01-09T16:46:17;11.92;61.55
69944;DHT22;57257;48.408;-4.498;2023-01-09T16:48:43;11.90;61.75
69944;DHT22;57257;48.408;-4.498;2023-01-09T16:51:14;11.83;62.12
69944;DHT22;57257;48.408;-4.498;2023-01-09T16:53:40;11.82;62.65
69944;DHT22;57257;48.408;-4.498;2023-01-09T16:56:11;11.78;62.80
69944;DHT22;57257;48.408;-4.498;2023-01-09T16:58:37;11.73;62.90
69944;DHT22;57257;48.408;-4.498;2023-01-09T17:01:03;11.72;62.82
69944;DHT22;57257;48.408;-4.498;2023-01-09T17:03:29;11.70;62.95
69944;DHT22;57257;48.408;-4.498;2023-01-09T17:05:57;11.66;63.06
69944;DHT22;57257;48.408;-4.498;2023-01-09T17:08:25;11.63;63.14
69944;DHT22;57257;48.408;-4.498;2023-01-09T17:10:52;11.61;63.36
69944;DHT22;57257;48.408;-4.498;2023-01-09T17:13:18;11.61;63.42
69944;DHT22;57257;48.408;-4.498;2023-01-09T17:15:44;11.61;63.47
69944;DHT22;57257;48.408;-4.498;2023-01-09T17:18:20;11.61;63.64
69944;DHT22;57257;48.408;-4.498;2023-01-09T17:20:48;11.59;63.67
69944;DHT22;57257;48.408;-4.498;2023-01-09T17:23:14;11.59;63.96
69944;DHT22;57257;48.408;-4.498;2023-01-09T17:25:41;11.59;63.93
69944;DHT22;57257;48.408;-4.498;2023-01-09T17:28:25;11.59;64.06
69944;DHT22;57257;48.408;-4.498;2023-01-09T17:31:03;11.56;64.31
69944;DHT22;57257;48.408;-4.498;2023-01-09T17:33:34;11.56;64.51
69944;DHT22;57257;48.408;-4.498;2023-01-09T17:36:04;11.55;65.01
69944;DHT22;57257;48.408;-4.498;2023-01-09T17:38:31;11.54;64.66
69944;DHT22;57257;48.408;-4.498;2023-01-09T17:40:56;11.49;64.58
69944;DHT22;57257;48.408;-4.498;2023-01-09T17:43:21;11.43;64.79
69944;DHT22;57257;48.408;-4.498;2023-01-09T17:45:47;11.43;65.03
69944;DHT22;57257;48.408;-4.498;2023-01-09T17:48:18;11.40;64.93
69944;DHT22;57257;48.408;-4.498;2023-01-09T17:50:45;11.39;65.04
69944;DHT22;57257;48.408;-4.498;2023-01-09T17:53:11;11.34;65.28
69944;DHT22;57257;48.408;-4.498;2023-01-09T17:55:37;11.31;65.37
69944;DHT22;57257;48.408;-4.498;2023-01-09T17:58:03;11.31;65.32
69944;DHT22;57257;48.408;-4.498;2023-01-09T18:00:30;11.25;65.48
69944;DHT22;57257;48.408;-4.498;2023-01-09T18:02:58;11.22;65.87
69944;DHT22;57257;48.408;-4.498;2023-01-09T18:05:24;11.26;65.98
69944;DHT22;57257;48.408;-4.498;2023-01-09T18:07:52;11.29;66.19
69944;DHT22;57257;48.408;-4.498;2023-01-09T18:10:20;11.32;66.13
69944;DHT22;57257;48.408;-4.498;2023-01-09T18:12:48;11.35;66.12
69944;DHT22;57257;48.408;-4.498;2023-01-09T18:15:14;11.38;66.19
69944;DHT22;57257;48.408;-4.498;2023-01-09T18:17:39;11.40;65.89
69944;DHT22;57257;48.408;-4.498;2023-01-09T18:20:05;11.42;65.84
69944;DHT22;57257;48.408;-4.498;2023-01-09T18:22:32;11.45;65.55
69944;DHT22;57257;48.408;-4.498;2023-01-09T18:24:58;11.48;65.43
69944;DHT22;57257;48.408;-4.498;2023-01-09T18:27:24;11.51;65.30
69944;DHT22;57257;48.408;-4.498;2023-01-09T18:29:49;11.52;65.06
69944;DHT22;57257;48.408;-4.498;2023-01-09T18:32:15;11.56;64.83
69944;DHT22;57257;48.408;-4.498;2023-01-09T18:34:40;11.55;64.64
69944;DHT22;57257;48.408;-4.498;2023-01-09T18:37:05;11.54;64.42
69944;DHT22;57257;48.408;-4.498;2023-01-09T18:39:31;11.58;64.40